sensor_id;sensor_type;location;lat;lon;timestamp;pressure;altitude;pressure_sealevel;temperature;humidity
74794;BME280;63320;50.768;6.724;2023-05-10T00:00:33;99510.25;;;12.77;93.31
74794;BME280;63320;50.768;6.724;2023-05-10T00:02:59;99513.50;;;12.68;93.40
74794;BME280;63320;50.768;6.724;2023-05-10T00:05:24;99505.78;;;12.65;93.72
74794;BME280;63320;50.768;6.724;2023-05-10T00:07:51;99515.50;;;12.90;93.17
74794;BME280;63320;50.768;6.724;2023-05-10T00:10:16;99508.44;;;12.78;93.53
74794;BME280;63320;50.768;6.724;2023-05-10T00:12:41;99519.44;;;12.97;93.46
74794;BME280;63320;50.768;6.724;2023-05-10T00:15:08;99513.00;;;12.88;93.17
74794;BME280;63320;50.768;6.724;2023-05-10T00:17:34;99520.28;;;12.98;93.04
74794;BME280;63320;50.768;6.724;2023-05-10T00:19:59;99510.03;;;13.31;92.59
74794;BME280;63320;50.768;6.724;2023-05-10T00:22:25;99515.31;;;13.06;93.06
74794;BME280;63320;50.768;6.724;2023-05-10T00:24:51;99512.16;;;13.01;92.56
74794;BME280;63320;50.768;6.724;2023-05-10T00:27:17;99509.72;;;13.10;93.16
74794;BME280;63320;50.768;6.724;2023-05-10T00:29:42;99506.88;;;13.01;92.96
74794;BME280;63320;50.768;6.724;2023-05-10T00:32:07;99511.59;;;13.08;92.48
74794;BME280;63320;50.768;6.724;2023-05-10T00:34:33;99510.97;;;13.05;92.35
74794;BME280;63320;50.768;6.724;2023-05-10T00:36:58;99517.97;;;13.31;92.41
74794;BME280;63320;50.768;6.724;2023-05-10T00:39:23;99513.28;;;13.35;92.00
74794;BME280;63320;50.768;6.724;2023-05-10T00:41:50;99516.03;;;13.08;92.05
74794;BME280;63320;50.768;6.724;2023-05-10T00:44:15;99511.81;;;12.80;92.89
74794;BME280;63320;50.768;6.724;2023-05-10T00:46:41;99510.38;;;12.76;94.01
74794;BME280;63320;50.768;6.724;2023-05-10T00:49:06;99512.34;;;12.85;94.30
74794;BME280;63320;50.768;6.724;2023-05-10T00:51:32;99522.69;;;12.62;94.27
74794;BME280;63320;50.768;6.724;2023-05-10T00:53:58;99517.75;;;12.70;94.43
74794;BME280;63320;50.768;6.724;2023-05-10T00:56:23;99520.81;;;12.77;94.76
74794;BME280;63320;50.768;6.724;2023-05-10T00:58:50;99522.47;;;12.78;94.26
74794;BME280;63320;50.768;6.724;2023-05-10T01:01:16;99514.38;;;12.81;94.62
74794;BME280;63320;50.768;6.724;2023-05-10T01:03:41;99516.91;;;12.95;93.50
74794;BME280;63320;50.768;6.724;2023-05-10T01:06:07;99517.44;;;12.75;93.52
74794;BME280;63320;50.768;6.724;2023-05-10T01:08:33;99513.63;;;12.66;93.06
74794;BME280;63320;50.768;6.724;2023-05-10T01:10:58;99514.81;;;12.75;92.85
74794;BME280;63320;50.768;6.724;2023-05-10T01:13:31;99511.59;;;12.70;92.87
74794;BME280;63320;50.768;6.724;2023-05-10T01:15:59;99509.91;;;12.56;93.37
74794;BME280;63320;50.768;6.724;2023-05-10T01:18:25;99508.75;;;12.73;93.23
74794;BME280;63320;50.768;6.724;2023-05-10T01:21:03;99512.16;;;12.75;93.75
74794;BME280;63320;50.768;6.724;2023-05-10T01:23:44;99518.66;;;12.69;93.79
74794;BME280;63320;50.768;6.724;2023-05-10T01:29:35;99519.09;;;12.89;94.43
74794;BME280;63320;50.768;6.724;2023-05-10T01:32:22;99514.03;;;12.73;94.29
74794;BME280;63320;50.768;6.724;2023-05-10T01:34:58;99513.00;;;12.88;94.20
74794;BME280;63320;50.768;6.724;2023-05-10T01:37:31;99519.94;;;12.89;94.06
74794;BME280;63320;50.768;6.724;2023-05-10T01:40:03;99521.53;;;12.79;94.52
74794;BME280;63320;50.768;6.724;2023-05-10T01:42:37;99515.94;;;12.71;95.11
74794;BME280;63320;50.768;6.724;2023-05-10T01:45:11;99515.63;;;12.50;95.69
74794;BME280;63320;50.768;6.724;2023-05-10T01:47:42;99521.44;;;12.68;95.47
74794;BME280;63320;50.768;6.724;2023-05-10T01:50:22;99532.06;;;12.54;95.76
74794;BME280;63320;50.768;6.724;2023-05-10T01:52:51;99519.03;;;12.90;95.25
74794;BME280;63320;50.768;6.724;2023-05-10T01:55:20;99517.22;;;12.91;95.07
74794;BME280;63320;50.768;6.724;2023-05-10T01:57:51;99509.81;;;12.83;94.80
74794;BME280;63320;50.768;6.724;2023-05-10T02:00:19;99510.91;;;12.81;94.63
74794;BME280;63320;50.768;6.724;2023-05-10T02:02:48;99514.59;;;12.91;94.91
74794;BME280;63320;50.768;6.724;2023-05-10T02:05:15;99512.03;;;12.89;94.91
74794;BME280;63320;50.768;6.724;2023-05-10T02:07:41;99519.97;;;12.77;94.85
74794;BME280;63320;50.768;6.724;2023-05-10T02:10:09;99524.06;;;12.68;94.66
74794;BME280;63320;50.768;6.724;2023-05-10T02:12:37;99517.94;;;12.67;94.73
74794;BME280;63320;50.768;6.724;2023-05-10T02:15:06;99527.22;;;12.60;95.25
74794;BME280;63320;50.768;6.724;2023-05-10T02:17:34;99525.75;;;12.69;95.18
74794;BME280;63320;50.768;6.724;2023-05-10T02:20:02;99523.03;;;12.70;94.97
74794;BME280;63320;50.768;6.724;2023-05-10T02:22:28;99526.59;;;12.82;95.23
74794;BME280;63320;50.768;6.724;2023-05-10T02:24:54;99530.19;;;13.07;94.29
74794;BME280;63320;50.768;6.724;2023-05-10T02:27:21;99533.03;;;13.16;93.54
74794;BME280;63320;50.768;6.724;2023-05-10T02:29:48;99532.94;;;13.18;93.58
74794;BME280;63320;50.768;6.724;2023-05-10T02:32:15;99542.03;;;13.27;93.06
74794;BME280;63320;50.768;6.724;2023-05-10T02:34:41;99531.88;;;12.95;93.53
74794;BME280;63320;50.768;6.724;2023-05-10T02:37:09;99529.13;;;12.71;94.59
74794;BME280;63320;50.768;6.724;2023-05-10T02:39:35;99545.34;;;12.65;94.82
74794;BME280;63320;50.768;6.724;2023-05-10T02:42:00;99544.50;;;12.64;95.08
74794;BME280;63320;50.768;6.724;2023-05-10T02:44:27;99534.75;;;12.92;95.07
74794;BME280;63320;50.768;6.724;2023-05-10T02:46:53;99533.34;;;12.99;94.39
74794;BME280;63320;50.768;6.724;2023-05-10T02:49:19;99543.31;;;12.95;93.87
74794;BME280;63320;50.768;6.724;2023-05-10T02:51:50;99547.28;;;12.88;94.74
74794;BME280;63320;50.768;6.724;2023-05-10T02:54:19;99546.66;;;12.85;95.10
74794;BME280;63320;50.768;6.724;2023-05-10T02:56:48;99546.56;;;12.99;95.20
74794;BME280;63320;50.768;6.724;2023-05-10T02:59:15;99545.19;;;12.81;94.83
74794;BME280;63320;50.768;6.724;2023-05-10T03:01:41;99549.50;;;12.94;94.75
74794;BME280;63320;50.768;6.724;2023-05-10T03:04:06;99548.22;;;13.00;94.70
74794;BME280;63320;50.768;6.724;2023-05-10T03:06:31;99547.50;;;12.85;94.75
74794;BME280;63320;50.768;6.724;2023-05-10T03:08:57;99546.22;;;12.78;95.40
74794;BME280;63320;50.768;6.724;2023-05-10T03:11:32;99551.16;;;12.70;95.54
74794;BME280;63320;50.768;6.724;2023-05-10T03:14:09;99552.22;;;12.67;95.75
74794;BME280;63320;50.768;6.724;2023-05-10T03:16:41;99553.06;;;12.68;96.17
74794;BME280;63320;50.768;6.724;2023-05-10T03:19:12;99548.78;;;12.92;96.10
74794;BME280;63320;50.768;6.724;2023-05-10T03:21:45;99558.53;;;12.65;95.69
74794;BME280;63320;50.768;6.724;2023-05-10T03:24:13;99565.22;;;12.70;96.27
74794;BME280;63320;50.768;6.724;2023-05-10T03:26:40;99561.31;;;12.76;95.37
74794;BME280;63320;50.768;6.724;2023-05-10T03:29:08;99562.38;;;12.61;96.11
74794;BME280;63320;50.768;6.724;2023-05-10T03:31:35;99566.25;;;12.55;96.56
74794;BME280;63320;50.768;6.724;2023-05-10T03:34:00;99561.47;;;12.48;96.90
74794;BME280;63320;50.768;6.724;2023-05-10T03:36:26;99568.25;;;12.64;96.73
74794;BME280;63320;50.768;6.724;2023-05-10T03:38:51;99565.31;;;12.69;96.22
74794;BME280;63320;50.768;6.724;2023-05-10T03:41:16;99572.28;;;12.70;96.14
74794;BME280;63320;50.768;6.724;2023-05-10T03:43:43;99570.38;;;12.72;95.92
74794;BME280;63320;50.768;6.724;2023-05-10T03:46:08;99571.34;;;12.71;95.71
74794;BME280;63320;50.768;6.724;2023-05-10T03:48:34;99558.47;;;12.79;95.88
74794;BME280;63320;50.768;6.724;2023-05-10T03:50:59;99569.25;;;12.89;95.68
74794;BME280;63320;50.768;6.724;2023-05-10T03:53:24;99567.88;;;12.70;95.48
74794;BME280;63320;50.768;6.724;2023-05-10T03:55:50;99562.69;;;12.82;95.36
74794;BME280;63320;50.768;6.724;2023-05-10T03:58:15;99562.41;;;12.86;94.71
74794;BME280;63320;50.768;6.724;2023-05-10T04:00:42;99563.13;;;12.76;94.12
74794;BME280;63320;50.768;6.724;2023-05-10T04:03:07;99563.66;;;12.81;94.44
74794;BME280;63320;50.768;6.724;2023-05-10T04:05:33;99564.28;;;12.72;94.06
74794;BME280;63320;50.768;6.724;2023-05-10T04:07:58;99569.78;;;12.81;93.54
74794;BME280;63320;50.768;6.724;2023-05-10T04:10:23;99569.84;;;12.80;93.39
74794;BME280;63320;50.768;6.724;2023-05-10T04:12:48;99573.38;;;12.93;93.11
74794;BME280;63320;50.768;6.724;2023-05-10T04:15:14;99569.78;;;12.81;92.79
74794;BME280;63320;50.768;6.724;2023-05-10T04:17:41;99565.44;;;12.80;93.70
74794;BME280;63320;50.768;6.724;2023-05-10T04:20:07;99572.94;;;12.99;93.59
74794;BME280;63320;50.768;6.724;2023-05-10T04:22:32;99578.13;;;12.75;93.47
74794;BME280;63320;50.768;6.724;2023-05-10T04:24:58;99578.72;;;12.66;93.82
74794;BME280;63320;50.768;6.724;2023-05-10T04:27:23;99575.91;;;12.82;94.17
74794;BME280;63320;50.768;6.724;2023-05-10T04:29:48;99580.91;;;12.59;93.97
74794;BME280;63320;50.768;6.724;2023-05-10T04:32:14;99576.81;;;12.68;94.28
74794;BME280;63320;50.768;6.724;2023-05-10T04:34:40;99581.25;;;12.67;93.78
74794;BME280;63320;50.768;6.724;2023-05-10T04:37:06;99586.09;;;12.61;93.94
74794;BME280;63320;50.768;6.724;2023-05-10T04:39:31;99572.16;;;12.59;92.89
74794;BME280;63320;50.768;6.724;2023-05-10T04:41:56;99582.31;;;12.78;92.57
74794;BME280;63320;50.768;6.724;2023-05-10T04:44:22;99581.44;;;12.64;92.31
74794;BME280;63320;50.768;6.724;2023-05-10T04:46:47;99582.63;;;12.73;92.00
74794;BME280;63320;50.768;6.724;2023-05-10T04:49:12;99589.28;;;12.66;92.05
74794;BME280;63320;50.768;6.724;2023-05-10T04:51:39;99594.94;;;12.60;92.68
74794;BME280;63320;50.768;6.724;2023-05-10T04:54:04;99596.94;;;12.56;92.90
74794;BME280;63320;50.768;6.724;2023-05-10T04:56:29;99598.03;;;12.66;93.22
74794;BME280;63320;50.768;6.724;2023-05-10T04:58:55;99598.75;;;12.68;93.02
74794;BME280;63320;50.768;6.724;2023-05-10T05:01:20;99600.97;;;12.62;93.47
74794;BME280;63320;50.768;6.724;2023-05-10T05:03:45;99599.66;;;12.55;93.62
74794;BME280;63320;50.768;6.724;2023-05-10T05:06:11;99605.56;;;12.46;94.20
74794;BME280;63320;50.768;6.724;2023-05-10T05:08:37;99600.44;;;12.69;93.78
74794;BME280;63320;50.768;6.724;2023-05-10T05:11:03;99613.06;;;12.52;93.87
74794;BME280;63320;50.768;6.724;2023-05-10T05:13:28;99613.72;;;12.55;93.89
74794;BME280;63320;50.768;6.724;2023-05-10T05:15:54;99608.91;;;12.75;93.41
74794;BME280;63320;50.768;6.724;2023-05-10T05:18:19;99623.16;;;12.72;92.75
74794;BME280;63320;50.768;6.724;2023-05-10T05:20:44;99613.56;;;12.84;92.64
74794;BME280;63320;50.768;6.724;2023-05-10T05:23:10;99613.31;;;12.74;91.99
74794;BME280;63320;50.768;6.724;2023-05-10T05:25:36;99618.66;;;12.87;91.98
74794;BME280;63320;50.768;6.724;2023-05-10T05:28:02;99607.66;;;12.80;90.91
74794;BME280;63320;50.768;6.724;2023-05-10T05:30:27;99616.91;;;12.73;91.87
74794;BME280;63320;50.768;6.724;2023-05-10T05:32:52;99622.47;;;12.95;90.99
74794;BME280;63320;50.768;6.724;2023-05-10T05:35:18;99621.34;;;12.73;90.05
74794;BME280;63320;50.768;6.724;2023-05-10T05:37:43;99617.75;;;12.74;90.00
74794;BME280;63320;50.768;6.724;2023-05-10T05:40:13;99624.09;;;12.71;89.81
74794;BME280;63320;50.768;6.724;2023-05-10T05:42:40;99625.72;;;12.99;90.47
74794;BME280;63320;50.768;6.724;2023-05-10T05:45:06;99628.13;;;12.77;89.39
74794;BME280;63320;50.768;6.724;2023-05-10T05:47:31;99637.84;;;12.76;89.83
74794;BME280;63320;50.768;6.724;2023-05-10T05:49:57;99629.75;;;13.05;89.55
74794;BME280;63320;50.768;6.724;2023-05-10T05:52:22;99630.28;;;13.10;89.10
74794;BME280;63320;50.768;6.724;2023-05-10T05:54:47;99637.09;;;13.27;89.16
74794;BME280;63320;50.768;6.724;2023-05-10T05:57:13;99646.91;;;12.85;87.70
74794;BME280;63320;50.768;6.724;2023-05-10T05:59:39;99638.44;;;12.80;88.43
74794;BME280;63320;50.768;6.724;2023-05-10T06:02:05;99644.06;;;12.88;88.62
74794;BME280;63320;50.768;6.724;2023-05-10T06:04:30;99647.56;;;12.88;88.71
74794;BME280;63320;50.768;6.724;2023-05-10T06:06:55;99649.25;;;12.89;88.51
74794;BME280;63320;50.768;6.724;2023-05-10T06:09:21;99650.09;;;12.90;89.09
74794;BME280;63320;50.768;6.724;2023-05-10T06:11:46;99656.84;;;12.94;88.73
74794;BME280;63320;50.768;6.724;2023-05-10T06:14:11;99658.88;;;12.90;89.01
74794;BME280;63320;50.768;6.724;2023-05-10T06:16:38;99663.69;;;12.84;88.91
74794;BME280;63320;50.768;6.724;2023-05-10T06:19:03;99662.97;;;12.82;89.06
74794;BME280;63320;50.768;6.724;2023-05-10T06:21:29;99664.03;;;13.05;89.54
74794;BME280;63320;50.768;6.724;2023-05-10T06:23:54;99671.59;;;12.84;88.67
74794;BME280;63320;50.768;6.724;2023-05-10T06:26:20;99674.53;;;12.79;88.75
74794;BME280;63320;50.768;6.724;2023-05-10T06:28:45;99665.72;;;12.80;88.96
74794;BME280;63320;50.768;6.724;2023-05-10T06:31:10;99676.81;;;12.85;89.28
74794;BME280;63320;50.768;6.724;2023-05-10T06:33:37;99683.25;;;12.94;88.89
74794;BME280;63320;50.768;6.724;2023-05-10T06:36:03;99681.13;;;12.86;89.70
74794;BME280;63320;50.768;6.724;2023-05-10T06:38:28;99683.59;;;13.02;89.05
74794;BME280;63320;50.768;6.724;2023-05-10T06:40:53;99685.81;;;13.08;88.46
74794;BME280;63320;50.768;6.724;2023-05-10T06:43:19;99690.19;;;12.95;88.48
74794;BME280;63320;50.768;6.724;2023-05-10T06:45:44;99688.56;;;13.07;89.14
74794;BME280;63320;50.768;6.724;2023-05-10T06:48:09;99691.81;;;12.98;89.50
74794;BME280;63320;50.768;6.724;2023-05-10T06:50:36;99693.50;;;12.99;89.35
74794;BME280;63320;50.768;6.724;2023-05-10T06:53:01;99692.00;;;13.21;89.32
74794;BME280;63320;50.768;6.724;2023-05-10T06:55:27;99696.91;;;13.01;88.61
74794;BME280;63320;50.768;6.724;2023-05-10T06:57:53;99699.78;;;13.10;89.68
74794;BME280;63320;50.768;6.724;2023-05-10T07:00:19;99701.63;;;12.95;90.26
74794;BME280;63320;50.768;6.724;2023-05-10T07:02:44;99700.81;;;13.08;89.13
74794;BME280;63320;50.768;6.724;2023-05-10T07:05:10;99695.34;;;13.11;89.02
74794;BME280;63320;50.768;6.724;2023-05-10T07:07:36;99689.72;;;13.03;90.03
74794;BME280;63320;50.768;6.724;2023-05-10T07:10:02;99690.19;;;13.22;89.34
74794;BME280;63320;50.768;6.724;2023-05-10T07:12:27;99685.66;;;13.24;89.58
74794;BME280;63320;50.768;6.724;2023-05-10T07:14:53;99688.28;;;13.24;89.56
74794;BME280;63320;50.768;6.724;2023-05-10T07:17:18;99691.78;;;13.25;89.63
74794;BME280;63320;50.768;6.724;2023-05-10T07:19:43;99697.28;;;13.34;89.56
74794;BME280;63320;50.768;6.724;2023-05-10T07:22:09;99687.97;;;13.29;89.05
74794;BME280;63320;50.768;6.724;2023-05-10T07:24:36;99695.16;;;13.39;88.70
74794;BME280;63320;50.768;6.724;2023-05-10T07:27:01;99707.53;;;13.26;88.94
74794;BME280;63320;50.768;6.724;2023-05-10T07:29:26;99701.59;;;13.35;88.64
74794;BME280;63320;50.768;6.724;2023-05-10T07:31:52;99704.16;;;13.37;88.27
74794;BME280;63320;50.768;6.724;2023-05-10T07:34:17;99711.63;;;13.30;88.29
74794;BME280;63320;50.768;6.724;2023-05-10T07:36:42;99702.56;;;13.34;88.85
74794;BME280;63320;50.768;6.724;2023-05-10T07:39:08;99706.69;;;13.38;88.33
74794;BME280;63320;50.768;6.724;2023-05-10T07:41:34;99709.75;;;13.32;87.71
74794;BME280;63320;50.768;6.724;2023-05-10T07:44:00;99709.75;;;13.32;88.55
74794;BME280;63320;50.768;6.724;2023-05-10T07:46:25;99718.84;;;13.41;88.38
74794;BME280;63320;50.768;6.724;2023-05-10T07:48:51;99720.53;;;13.55;88.68
74794;BME280;63320;50.768;6.724;2023-05-10T07:51:16;99713.91;;;13.62;86.50
74794;BME280;63320;50.768;6.724;2023-05-10T07:53:41;99717.59;;;13.46;84.25
74794;BME280;63320;50.768;6.724;2023-05-10T07:56:23;99728.34;;;13.43;81.77
74794;BME280;63320;50.768;6.724;2023-05-10T07:58:50;99725.28;;;13.37;83.08
74794;BME280;63320;50.768;6.724;2023-05-10T08:01:16;99715.91;;;13.45;83.77
74794;BME280;63320;50.768;6.724;2023-05-10T08:03:41;99718.63;;;13.69;84.32
74794;BME280;63320;50.768;6.724;2023-05-10T08:06:06;99723.50;;;13.63;83.59
74794;BME280;63320;50.768;6.724;2023-05-10T08:08:32;99724.78;;;13.57;84.32
74794;BME280;63320;50.768;6.724;2023-05-10T08:10:57;99726.56;;;13.69;84.54
74794;BME280;63320;50.768;6.724;2023-05-10T08:13:22;99731.97;;;13.68;83.94
74794;BME280;63320;50.768;6.724;2023-05-10T08:15:49;99729.22;;;13.57;84.76
74794;BME280;63320;50.768;6.724;2023-05-10T08:18:14;99726.88;;;13.52;84.96
74794;BME280;63320;50.768;6.724;2023-05-10T08:20:40;99726.34;;;13.47;84.83
74794;BME280;63320;50.768;6.724;2023-05-10T08:23:05;99735.97;;;13.48;85.86
74794;BME280;63320;50.768;6.724;2023-05-10T08:25:31;99743.53;;;13.27;85.42
74794;BME280;63320;50.768;6.724;2023-05-10T08:27:56;99747.16;;;13.39;85.62
74794;BME280;63320;50.768;6.724;2023-05-10T08:30:22;99749.47;;;13.43;85.51
74794;BME280;63320;50.768;6.724;2023-05-10T08:32:48;99752.53;;;13.37;85.75
74794;BME280;63320;50.768;6.724;2023-05-10T08:35:15;99750.13;;;13.60;86.80
74794;BME280;63320;50.768;6.724;2023-05-10T08:37:40;99754.28;;;13.77;87.51
74794;BME280;63320;50.768;6.724;2023-05-10T08:40:06;99757.66;;;13.66;87.70
74794;BME280;63320;50.768;6.724;2023-05-10T08:42:35;99764.41;;;13.57;86.83
74794;BME280;63320;50.768;6.724;2023-05-10T08:45:02;99765.88;;;13.48;87.14
74794;BME280;63320;50.768;6.724;2023-05-10T08:47:29;99767.34;;;13.53;88.35
74794;BME280;63320;50.768;6.724;2023-05-10T08:49:57;99769.66;;;13.44;87.30
74794;BME280;63320;50.768;6.724;2023-05-10T08:52:23;99771.44;;;13.44;87.54
74794;BME280;63320;50.768;6.724;2023-05-10T08:54:51;99782.66;;;13.60;86.87
74794;BME280;63320;50.768;6.724;2023-05-10T08:57:17;99781.97;;;13.71;86.70
74794;BME280;63320;50.768;6.724;2023-05-10T08:59:43;99783.63;;;13.59;85.64
74794;BME280;63320;50.768;6.724;2023-05-10T09:02:10;99789.06;;;13.70;86.00
74794;BME280;63320;50.768;6.724;2023-05-10T09:04:36;99782.50;;;13.76;85.91
74794;BME280;63320;50.768;6.724;2023-05-10T09:07:03;99784.28;;;13.88;86.05
74794;BME280;63320;50.768;6.724;2023-05-10T09:09:29;99784.38;;;13.99;85.91
74794;BME280;63320;50.768;6.724;2023-05-10T09:11:54;99780.16;;;14.10;84.52
74794;BME280;63320;50.768;6.724;2023-05-10T09:14:20;99789.91;;;13.96;83.31
74794;BME280;63320;50.768;6.724;2023-05-10T09:16:45;99791.16;;;14.04;83.60
74794;BME280;63320;50.768;6.724;2023-05-10T09:19:11;99796.47;;;14.16;84.02
74794;BME280;63320;50.768;6.724;2023-05-10T09:21:37;99796.00;;;14.10;82.85
74794;BME280;63320;50.768;6.724;2023-05-10T09:24:05;99812.41;;;14.15;82.80
74794;BME280;63320;50.768;6.724;2023-05-10T09:26:30;99801.81;;;14.15;83.22
74794;BME280;63320;50.768;6.724;2023-05-10T09:28:57;99794.94;;;14.38;82.16
74794;BME280;63320;50.768;6.724;2023-05-10T09:31:23;99787.13;;;14.49;81.78
74794;BME280;63320;50.768;6.724;2023-05-10T09:33:49;99803.41;;;14.43;83.24
74794;BME280;63320;50.768;6.724;2023-05-10T09:36:15;99799.63;;;14.21;83.20
74794;BME280;63320;50.768;6.724;2023-05-10T09:38:47;99800.66;;;14.19;82.59
74794;BME280;63320;50.768;6.724;2023-05-10T09:41:18;99811.47;;;14.16;83.10
74794;BME280;63320;50.768;6.724;2023-05-10T09:43:44;99814.94;;;14.04;81.75
74794;BME280;63320;50.768;6.724;2023-05-10T09:46:09;99820.34;;;14.02;81.42
74794;BME280;63320;50.768;6.724;2023-05-10T09:48:40;99810.59;;;14.28;80.26
74794;BME280;63320;50.768;6.724;2023-05-10T09:51:06;99815.69;;;14.31;81.51
74794;BME280;63320;50.768;6.724;2023-05-10T09:53:32;99820.13;;;14.18;80.64
74794;BME280;63320;50.768;6.724;2023-05-10T09:55:57;99819.28;;;14.30;80.49
74794;BME280;63320;50.768;6.724;2023-05-10T09:58:24;99803.50;;;14.41;79.87
74794;BME280;63320;50.768;6.724;2023-05-10T10:00:49;99815.38;;;14.23;80.51
74794;BME280;63320;50.768;6.724;2023-05-10T10:03:17;99811.44;;;14.29;80.78
74794;BME280;63320;50.768;6.724;2023-05-10T10:05:43;99824.34;;;14.33;79.25
74794;BME280;63320;50.768;6.724;2023-05-10T10:08:10;99814.81;;;14.31;79.52
74794;BME280;63320;50.768;6.724;2023-05-10T10:10:35;99823.31;;;14.36;78.88
74794;BME280;63320;50.768;6.724;2023-05-10T10:13:01;99821.09;;;14.17;79.74
74794;BME280;63320;50.768;6.724;2023-05-10T10:15:28;99824.03;;;14.25;79.71
74794;BME280;63320;50.768;6.724;2023-05-10T10:17:54;99819.47;;;14.40;79.17
74794;BME280;63320;50.768;6.724;2023-05-10T10:20:21;99819.16;;;14.44;78.90
74794;BME280;63320;50.768;6.724;2023-05-10T10:22:46;99826.91;;;14.22;80.03
74794;BME280;63320;50.768;6.724;2023-05-10T10:25:13;99830.84;;;14.16;78.87
74794;BME280;63320;50.768;6.724;2023-05-10T10:27:45;99836.66;;;14.21;79.07
74794;BME280;63320;50.768;6.724;2023-05-10T10:30:21;99832.81;;;14.38;78.73
74794;BME280;63320;50.768;6.724;2023-05-10T10:35:40;99822.66;;;14.58;78.77
74794;BME280;63320;50.768;6.724;2023-05-10T10:38:08;99833.66;;;14.39;79.31
74794;BME280;63320;50.768;6.724;2023-05-10T10:40:34;99823.09;;;14.52;77.70
74794;BME280;63320;50.768;6.724;2023-05-10T10:43:21;99819.50;;;14.53;77.84
74794;BME280;63320;50.768;6.724;2023-05-10T10:46:12;99832.94;;;14.49;76.27
74794;BME280;63320;50.768;6.724;2023-05-10T10:48:38;99831.13;;;14.37;77.98
74794;BME280;63320;50.768;6.724;2023-05-10T10:51:03;99831.75;;;14.15;78.04
74794;BME280;63320;50.768;6.724;2023-05-10T10:53:30;99838.22;;;13.98;78.31
74794;BME280;63320;50.768;6.724;2023-05-10T10:56:05;99833.16;;;14.21;79.13
74794;BME280;63320;50.768;6.724;2023-05-10T10:58:31;99832.38;;;14.44;78.62
74794;BME280;63320;50.768;6.724;2023-05-10T11:01:14;99830.16;;;14.64;77.73
74794;BME280;63320;50.768;6.724;2023-05-10T11:03:39;99827.19;;;14.56;76.68
74794;BME280;63320;50.768;6.724;2023-05-10T11:06:05;99821.38;;;14.76;76.54
74794;BME280;63320;50.768;6.724;2023-05-10T11:08:32;99830.09;;;14.89;75.55
74794;BME280;63320;50.768;6.724;2023-05-10T11:11:05;99826.56;;;15.01;75.93
74794;BME280;63320;50.768;6.724;2023-05-10T11:13:33;99838.09;;;15.00;75.75
74794;BME280;63320;50.768;6.724;2023-05-10T11:15:59;99831.00;;;15.25;75.93
74794;BME280;63320;50.768;6.724;2023-05-10T11:18:36;99837.19;;;14.89;76.89
74794;BME280;63320;50.768;6.724;2023-05-10T11:21:02;99838.16;;;15.36;76.12
74794;BME280;63320;50.768;6.724;2023-05-10T11:23:32;99839.16;;;15.46;74.84
74794;BME280;63320;50.768;6.724;2023-05-10T11:25:59;99847.28;;;15.79;74.66
74794;BME280;63320;50.768;6.724;2023-05-10T11:28:25;99845.16;;;15.96;74.55
74794;BME280;63320;50.768;6.724;2023-05-10T11:30:51;99852.34;;;15.83;73.19
74794;BME280;63320;50.768;6.724;2023-05-10T11:33:17;99843.31;;;15.61;74.29
74794;BME280;63320;50.768;6.724;2023-05-10T11:35:45;99841.81;;;15.46;74.02
74794;BME280;63320;50.768;6.724;2023-05-10T11:38:11;99845.78;;;15.40;71.93
74794;BME280;63320;50.768;6.724;2023-05-10T11:40:38;99844.13;;;15.50;73.11
74794;BME280;63320;50.768;6.724;2023-05-10T11:43:04;99847.91;;;15.35;72.15
74794;BME280;63320;50.768;6.724;2023-05-10T11:45:31;99840.03;;;14.98;73.22
74794;BME280;63320;50.768;6.724;2023-05-10T11:47:57;99845.16;;;15.13;73.01
74794;BME280;63320;50.768;6.724;2023-05-10T11:50:22;99852.75;;;14.93;73.49
74794;BME280;63320;50.768;6.724;2023-05-10T11:52:51;99845.78;;;14.80;73.46
74794;BME280;63320;50.768;6.724;2023-05-10T11:55:17;99849.13;;;14.94;73.91
74794;BME280;63320;50.768;6.724;2023-05-10T11:57:42;99850.22;;;15.16;73.18
74794;BME280;63320;50.768;6.724;2023-05-10T12:00:08;99848.16;;;15.08;73.48
74794;BME280;63320;50.768;6.724;2023-05-10T12:02:34;99849.94;;;15.08;74.11
74794;BME280;63320;50.768;6.724;2023-05-10T12:04:59;99849.00;;;15.09;74.31
74794;BME280;63320;50.768;6.724;2023-05-10T12:07:25;99855.97;;;15.34;74.37
74794;BME280;63320;50.768;6.724;2023-05-10T12:10:11;99850.84;;;15.43;72.96
74794;BME280;63320;50.768;6.724;2023-05-10T12:12:38;99846.41;;;15.20;72.81
74794;BME280;63320;50.768;6.724;2023-05-10T12:15:04;99851.03;;;15.29;71.52
74794;BME280;63320;50.768;6.724;2023-05-10T12:17:30;99846.69;;;15.52;71.63
74794;BME280;63320;50.768;6.724;2023-05-10T12:19:58;99851.81;;;15.42;72.33
74794;BME280;63320;50.768;6.724;2023-05-10T12:22:24;99846.09;;;15.60;71.32
74794;BME280;63320;50.768;6.724;2023-05-10T12:24:50;99848.03;;;15.58;72.01
74794;BME280;63320;50.768;6.724;2023-05-10T12:27:17;99852.88;;;15.40;71.97
74794;BME280;63320;50.768;6.724;2023-05-10T12:29:43;99848.75;;;15.36;70.96
74794;BME280;63320;50.768;6.724;2023-05-10T12:32:08;99861.16;;;15.83;69.30
74794;BME280;63320;50.768;6.724;2023-05-10T12:34:34;99856.88;;;16.16;67.82
74794;BME280;63320;50.768;6.724;2023-05-10T12:37:00;99852.66;;;16.02;66.77
74794;BME280;63320;50.768;6.724;2023-05-10T12:39:38;99857.13;;;16.01;66.60
74794;BME280;63320;50.768;6.724;2023-05-10T12:42:04;99854.97;;;16.18;67.68
74794;BME280;63320;50.768;6.724;2023-05-10T12:44:30;99843.88;;;16.13;67.57
74794;BME280;63320;50.768;6.724;2023-05-10T12:46:56;99849.50;;;15.97;67.93
74794;BME280;63320;50.768;6.724;2023-05-10T12:49:21;99859.78;;;16.13;66.56
74794;BME280;63320;50.768;6.724;2023-05-10T12:51:46;99860.00;;;15.98;67.52
74794;BME280;63320;50.768;6.724;2023-05-10T12:54:11;99868.97;;;15.85;66.59
74794;BME280;63320;50.768;6.724;2023-05-10T12:56:37;99859.81;;;15.77;68.36
74794;BME280;63320;50.768;6.724;2023-05-10T12:59:02;99866.34;;;15.96;68.85
74794;BME280;63320;50.768;6.724;2023-05-10T13:01:29;99864.44;;;15.87;68.41
74794;BME280;63320;50.768;6.724;2023-05-10T13:03:54;99859.13;;;15.63;68.40